Time;durP1;ratioP1;P1;durP2;ratioP2;P2;SDS_P1;SDS_P2;PMS_P1;PMS_P2;Temp;Humidity;BMP_temperature;BMP_pressure;BME280_temperature;BME280_humidity;BME280_pressure;Samples;Min_cycle;Max_cycle;Signal;HPM_P1;HPM_P2
2023/05/29 00:00:05;;;;;;;9.60;4.18;;;;;;;12.82;99.60;94398.53;5153782;27;20188;-74
2023/05/29 00:02:32;;;;;;;4.22;3.55;;;;;;;12.80;99.71;94416.34;5145697;27;20216;-75
2023/05/29 00:04:59;;;;;;;6.13;4.00;;;;;;;12.81;99.90;94413.28;5153659;27;20281;-75
2023/05/29 00:07:27;;;;;;;5.38;3.40;;;;;;;12.79;99.88;94410.09;5149155;27;20203;-75
2023/05/29 00:09:54;;;;;;;4.68;3.42;;;;;;;12.78;99.23;94408.53;5153380;27;20188;-74
2023/05/29 00:12:21;;;;;;;8.02;3.60;;;;;;;12.85;99.12;94407.16;5153893;27;20200;-75
2023/05/29 00:14:49;;;;;;;6.28;3.60;;;;;;;12.88;99.11;94411.88;5153476;27;20642;-75
2023/05/29 00:17:16;;;;;;;6.13;3.80;;;;;;;12.91;98.66;94406.53;5154088;27;20235;-75
2023/05/29 00:19:43;;;;;;;6.97;3.72;;;;;;;12.93;98.54;94412.41;5154570;27;20738;-75
2023/05/29 00:22:10;;;;;;;4.75;3.53;;;;;;;12.87;99.10;94421.16;5153930;27;20500;-75
2023/05/29 00:24:38;;;;;;;7.80;3.90;;;;;;;12.79;99.42;94418.25;5153640;27;20260;-75
2023/05/29 00:27:05;;;;;;;8.02;3.90;;;;;;;12.81;99.38;94413.28;5153351;27;20197;-75
2023/05/29 00:29:32;;;;;;;9.13;4.13;;;;;;;12.85;99.32;94418.78;5152980;27;20189;-75
2023/05/29 00:31:59;;;;;;;7.03;4.05;;;;;;;12.80;99.57;94417.13;5153071;27;20193;-75
2023/05/29 00:34:26;;;;;;;7.72;3.50;;;;;;;12.75;99.64;94413.84;5153240;27;20201;-75
2023/05/29 00:36:54;;;;;;;7.65;4.18;;;;;;;12.79;99.64;94406.59;5152563;27;20225;-75
2023/05/29 00:39:21;;;;;;;5.45;3.50;;;;;;;12.77;99.96;94417.03;5152897;27;20203;-75
2023/05/29 00:41:50;;;;;;;5.82;3.47;;;;;;;12.73;99.91;94419.63;5152555;27;20698;-75
2023/05/29 00:44:18;;;;;;;6.72;3.53;;;;;;;12.73;100.00;94410.69;5146055;27;20203;-75
2023/05/29 00:46:44;;;;;;;4.97;3.60;;;;;;;12.70;100.00;94417.63;5152564;27;20220;-75
2023/05/29 00:49:12;;;;;;;6.45;3.70;;;;;;;12.59;100.00;94408.34;5152695;27;20711;-75
2023/05/29 00:51:39;;;;;;;8.32;4.15;;;;;;;12.49;100.00;94410.78;5152736;27;20224;-74
2023/05/29 00:54:09;;;;;;;6.15;4.20;;;;;;;12.48;100.00;94403.75;5152090;27;20564;-74
2023/05/29 00:56:36;;;;;;;5.53;3.70;;;;;;;12.44;100.00;94403.66;5152740;27;20217;-74
2023/05/29 00:59:06;;;;;;;7.13;4.00;;;;;;;12.42;100.00;94405.94;5147750;27;20229;-74
2023/05/29 01:01:33;;;;;;;7.07;3.45;;;;;;;12.43;100.00;94402.09;5143650;27;20192;-74
2023/05/29 01:04:01;;;;;;;4.82;3.42;;;;;;;12.45;100.00;94399.81;5151619;27;20579;-74
2023/05/29 01:06:28;;;;;;;7.00;4.10;;;;;;;12.40;100.00;94394.63;5152387;27;20256;-74
2023/05/29 01:08:55;;;;;;;6.03;3.72;;;;;;;12.26;100.00;94394.22;5151921;27;20256;-74
2023/05/29 01:11:32;;;;;;;8.48;3.78;;;;;;;12.11;100.00;94395.72;5152501;27;20192;-74
2023/05/29 01:14:04;;;;;;;6.63;4.20;;;;;;;12.06;100.00;94399.44;5139283;27;20192;-74
2023/05/29 01:16:39;;;;;;;21.85;11.27;;;;;;;12.24;100.00;94393.75;5151962;27;20324;-74
2023/05/29 01:19:17;;;;;;;7.15;4.28;;;;;;;12.19;100.00;94396.72;5145838;27;20319;-74
2023/05/29 01:21:57;;;;;;;7.72;5.07;;;;;;;12.10;100.00;94405.00;5138092;27;20723;-74
2023/05/29 01:24:33;;;;;;;15.55;9.10;;;;;;;12.06;100.00;94402.16;5152400;27;20192;-74
2023/05/29 01:27:04;;;;;;;7.82;4.80;;;;;;;12.10;100.00;94410.44;5139613;27;20223;-74
2023/05/29 01:29:34;;;;;;;15.82;9.73;;;;;;;12.09;100.00;94409.63;5146556;27;20180;-75
2023/05/29 01:32:02;;;;;;;12.32;6.28;;;;;;;12.10;100.00;94399.56;5151861;27;20589;-74
2023/05/29 01:34:29;;;;;;;6.78;4.35;;;;;;;12.15;100.00;94402.06;5147353;27;20624;-74
2023/05/29 01:36:56;;;;;;;7.22;4.90;;;;;;;12.00;100.00;94400.03;5151156;27;20192;-74
2023/05/29 01:39:24;;;;;;;9.27;4.43;;;;;;;11.99;100.00;94398.47;5151522;27;20192;-75
2023/05/29 01:41:51;;;;;;;12.52;4.50;;;;;;;12.05;100.00;94402.50;5151145;27;20220;-75
2023/05/29 01:44:21;;;;;;;9.90;3.90;;;;;;;12.02;100.00;94404.00;5148587;27;20264;-75
2023/05/29 01:46:49;;;;;;;8.27;4.18;;;;;;;12.03;100.00;94400.13;5151159;27;20586;-75
2023/05/29 01:49:17;;;;;;;10.88;4.38;;;;;;;11.96;100.00;94402.63;5149310;27;20188;-74
2023/05/29 01:51:45;;;;;;;6.93;3.85;;;;;;;11.97;100.00;94398.81;5152029;27;20199;-74
2023/05/29 01:54:12;;;;;;;6.85;4.30;;;;;;;11.91;100.00;94402.88;5151773;27;20192;-74
2023/05/29 01:56:39;;;;;;;7.55;4.15;;;;;;;11.89;100.00;94404.38;5151137;27;20196;-74
2023/05/29 01:59:07;;;;;;;6.40;4.78;;;;;;;11.89;100.00;94401.66;5151205;27;20212;-74
2023/05/29 02:01:35;;;;;;;8.23;4.18;;;;;;;12.01;100.00;94390.78;5151241;27;20208;-74
2023/05/29 02:04:02;;;;;;;7.95;4.50;;;;;;;12.02;100.00;94398.56;5149923;27;20216;-75
2023/05/29 02:06:28;;;;;;;4.57;3.63;;;;;;;12.05;100.00;94391.66;5150826;27;20206;-74
2023/05/29 02:08:55;;;;;;;9.95;4.68;;;;;;;11.96;100.00;94399.94;5151346;27;20218;-75
2023/05/29 02:11:22;;;;;;;9.95;4.60;;;;;;;11.94;100.00;94395.97;5151596;27;20589;-75
2023/05/29 02:13:49;;;;;;;7.45;4.47;;;;;;;11.87;100.00;94403.91;5151198;27;20251;-74
2023/05/29 02:16:16;;;;;;;8.57;4.45;;;;;;;11.89;100.00;94398.94;5151333;27;20204;-74
2023/05/29 02:18:45;;;;;;;9.98;4.63;;;;;;;11.94;100.00;94394.03;5150925;27;20241;-73
2023/05/29 02:21:12;;;;;;;7.38;4.40;;;;;;;12.06;100.00;94388.59;5137155;27;20200;-76
2023/05/29 02:23:39;;;;;;;6.93;4.57;;;;;;;12.12;100.00;94385.66;5138104;27;20238;-75
2023/05/29 02:26:06;;;;;;;9.38;4.78;;;;;;;12.09;100.00;94387.91;5150793;27;20679;-76
2023/05/29 02:28:32;;;;;;;7.40;5.00;;;;;;;12.05;100.00;94392.44;5137587;27;20204;-76
2023/05/29 02:30:59;;;;;;;9.13;4.45;;;;;;;12.02;100.00;94398.56;5150994;27;20204;-76
2023/05/29 02:33:26;;;;;;;6.82;4.53;;;;;;;12.06;100.00;94398.66;5155611;27;20222;-75
2023/05/29 02:35:54;;;;;;;8.27;4.57;;;;;;;12.16;100.00;94391.97;5155512;27;20218;-75
2023/05/29 02:38:21;;;;;;;9.10;4.80;;;;;;;12.10;100.00;94397.63;5155444;27;20232;-75
2023/05/29 02:40:48;;;;;;;7.63;4.28;;;;;;;12.05;100.00;94402.50;5155256;27;20578;-75
2023/05/29 02:43:15;;;;;;;7.20;4.70;;;;;;;12.04;100.00;94396.28;5155078;27;20218;-75
2023/05/29 02:45:41;;;;;;;8.32;4.88;;;;;;;12.06;100.00;94399.44;5154383;27;20694;-75
2023/05/29 02:48:08;;;;;;;6.57;4.25;;;;;;;12.08;100.00;94399.13;5154615;27;20261;-75
2023/05/29 02:50:35;;;;;;;8.48;4.70;;;;;;;12.07;100.00;94395.59;5152652;27;20196;-75
2023/05/29 02:53:03;;;;;;;8.95;5.15;;;;;;;12.14;100.00;94399.69;5154750;27;20193;-75
2023/05/29 02:55:32;;;;;;;7.57;5.30;;;;;;;12.12;100.00;94402.72;5154550;27;20189;-75
2023/05/29 02:57:59;;;;;;;6.85;5.15;;;;;;;12.13;100.00;94393.47;5154797;27;20220;-76
2023/05/29 03:00:28;;;;;;;7.38;5.53;;;;;;;12.17;100.00;94401.69;5153777;27;20651;-73
2023/05/29 03:02:55;;;;;;;11.10;4.90;;;;;;;12.31;100.00;94393.97;5154836;27;20228;-75
2023/05/29 03:05:22;;;;;;;11.65;5.38;;;;;;;12.48;100.00;94401.03;5154675;27;20206;-74
2023/05/29 03:07:49;;;;;;;7.68;4.57;;;;;;;12.65;100.00;94404.28;5154496;27;20193;-75
2023/05/29 03:10:17;;;;;;;9.77;5.10;;;;;;;12.79;100.00;94407.38;5154439;27;20204;-76
2023/05/29 03:12:45;;;;;;;9.52;5.38;;;;;;;12.90;100.00;94393.28;5154387;27;20191;-76
2023/05/29 03:15:12;;;;;;;7.10;4.75;;;;;;;13.09;100.00;94407.03;5151006;27;20200;-74
2023/05/29 03:17:38;;;;;;;7.75;4.40;;;;;;;13.12;100.00;94403.56;5154525;27;20249;-75
2023/05/29 03:20:07;;;;;;;6.05;4.35;;;;;;;13.04;100.00;94393.66;5154424;27;20188;-74
2023/05/29 03:22:35;;;;;;;9.77;5.00;;;;;;;13.07;100.00;94401.91;5154362;27;20538;-75
2023/05/29 03:25:02;;;;;;;13.13;5.43;;;;;;;13.05;100.00;94395.25;5153448;27;20766;-75
2023/05/29 03:27:31;;;;;;;7.13;4.70;;;;;;;13.26;100.00;94401.25;5153795;27;20203;-75
2023/05/29 03:29:58;;;;;;;11.65;5.80;;;;;;;13.42;100.00;94399.34;5153676;27;20897;-75
2023/05/29 03:32:25;;;;;;;9.52;5.65;;;;;;;13.46;100.00;94402.94;5153861;27;20316;-75
2023/05/29 03:34:52;;;;;;;11.13;6.07;;;;;;;13.52;100.00;94398.84;5154228;27;20212;-75
2023/05/29 03:37:19;;;;;;;10.57;5.80;;;;;;;13.70;100.00;94393.00;5154115;27;20192;-75
2023/05/29 03:39:46;;;;;;;12.38;5.50;;;;;;;13.88;99.57;94405.91;5153843;27;20224;-75
2023/05/29 03:42:13;;;;;;;14.35;5.28;;;;;;;13.85;99.31;94414.78;5153543;27;20213;-75
2023/05/29 03:44:42;;;;;;;8.38;5.28;;;;;;;13.81;99.26;94419.34;5153175;27;20570;-75
2023/05/29 03:47:09;;;;;;;10.70;5.25;;;;;;;13.98;98.71;94412.75;5153183;27;20232;-75
2023/05/29 03:49:35;;;;;;;9.68;5.53;;;;;;;14.04;100.00;94419.50;5153614;27;20335;-75
2023/05/29 03:52:02;;;;;;;8.10;5.20;;;;;;;14.31;98.50;94422.44;5153255;27;20601;-75
2023/05/29 03:54:29;;;;;;;7.78;4.88;;;;;;;14.52;96.98;94428.38;5154291;27;20201;-75
2023/05/29 03:56:56;;;;;;;8.57;4.97;;;;;;;14.67;97.54;94421.28;5153923;27;20200;-75
2023/05/29 03:59:23;;;;;;;9.70;4.95;;;;;;;15.11;96.61;94421.75;5154009;27;20269;-75
2023/05/29 04:01:51;;;;;;;8.48;4.95;;;;;;;15.27;95.31;94422.47;5153887;27;20243;-75
2023/05/29 04:04:18;;;;;;;10.35;5.80;;;;;;;14.80;94.68;94434.41;5153762;27;20314;-75
2023/05/29 04:06:44;;;;;;;10.05;5.75;;;;;;;14.92;95.00;94431.53;5151803;27;20235;-75
2023/05/29 04:09:11;;;;;;;7.78;4.85;;;;;;;15.24;94.58;94425.91;5137555;27;20200;-75
2023/05/29 04:11:38;;;;;;;8.52;5.30;;;;;;;15.61;93.25;94429.72;5147300;27;20578;-75
2023/05/29 04:14:05;;;;;;;6.05;4.57;;;;;;;16.52;90.63;94428.00;5152872;27;20658;-76
2023/05/29 04:16:32;;;;;;;9.52;4.80;;;;;;;17.72;85.20;94431.41;5153657;27;20601;-76
2023/05/29 04:19:00;;;;;;;9.43;4.63;;;;;;;18.91;80.29;94415.38;5153548;27;20231;-76
2023/05/29 04:21:27;;;;;;;7.85;4.50;;;;;;;19.04;77.85;94417.41;5153410;27;20193;-74
2023/05/29 04:23:54;;;;;;;7.90;4.07;;;;;;;18.82;76.57;94423.97;5153627;27;20576;-75
2023/05/29 04:26:24;;;;;;;6.72;4.18;;;;;;;18.02;78.11;94425.78;5153374;27;20231;-76
2023/05/29 04:28:52;;;;;;;9.68;4.70;;;;;;;17.74;79.72;94432.59;5153496;27;20192;-76
2023/05/29 04:31:22;;;;;;;10.18;4.68;;;;;;;16.54;84.74;94431.94;5135235;27;20311;-77
2023/05/29 04:33:49;;;;;;;9.88;5.15;;;;;;;16.51;86.32;94437.38;5149029;27;20719;-77
2023/05/29 04:36:17;;;;;;;6.82;4.80;;;;;;;16.49;87.37;94439.69;5151942;27;20208;-77
2023/05/29 04:38:44;;;;;;;11.35;6.30;;;;;;;16.70;87.27;94435.31;5152707;27;20228;-77
2023/05/29 04:41:12;;;;;;;14.43;5.22;;;;;;;16.74;86.51;94440.06;5152324;27;20220;-75
2023/05/29 04:43:40;;;;;;;12.38;5.53;;;;;;;16.55;87.07;94446.41;5151987;27;20208;-75
2023/05/29 04:46:07;;;;;;;13.35;7.28;;;;;;;16.90;86.20;94440.66;5151222;27;20244;-75
2023/05/29 04:48:34;;;;;;;15.45;6.78;;;;;;;17.45;86.38;94435.41;5151804;27;20291;-77
2023/05/29 04:51:01;;;;;;;11.68;5.63;;;;;;;19.00;81.04;94429.53;5151329;27;20215;-76
2023/05/29 04:53:30;;;;;;;12.88;5.45;;;;;;;19.67;73.97;94424.31;5152034;27;20212;-76
2023/05/29 04:55:56;;;;;;;12.57;5.00;;;;;;;19.70;71.55;94431.75;5151718;27;20208;-75
2023/05/29 04:58:25;;;;;;;12.73;5.55;;;;;;;19.62;73.01;94435.66;5152043;27;20231;-76
2023/05/29 05:00:52;;;;;;;12.13;5.50;;;;;;;19.07;72.39;94446.84;5132126;27;20721;-75
2023/05/29 05:03:18;;;;;;;13.20;5.88;;;;;;;18.76;73.76;94448.25;5130840;27;20205;-75
2023/05/29 05:05:45;;;;;;;14.02;7.07;;;;;;;19.47;73.83;94447.75;5150731;27;20336;-77
2023/05/29 05:08:12;;;;;;;11.30;5.85;;;;;;;19.23;73.73;94448.47;5151224;27;20269;-77
2023/05/29 05:10:40;;;;;;;11.70;5.80;;;;;;;19.84;71.37;94453.75;5150761;27;20574;-77
2023/05/29 05:13:07;;;;;;;16.17;6.30;;;;;;;20.36;67.84;94454.22;5151258;27;20724;-78
2023/05/29 05:15:34;;;;;;;12.60;5.90;;;;;;;21.12;65.41;94459.16;5151619;27;20200;-75
2023/05/29 05:18:01;;;;;;;7.43;5.40;;;;;;;20.89;65.20;94453.34;5151480;27;20283;-76
2023/05/29 05:20:28;;;;;;;7.28;5.03;;;;;;;20.61;66.11;94469.91;5151255;27;20598;-77
2023/05/29 05:22:55;;;;;;;10.32;5.78;;;;;;;22.58;61.97;94461.84;5151992;27;20196;-75
2023/05/29 05:25:22;;;;;;;9.23;5.63;;;;;;;23.00;59.65;94454.38;5143171;27;20209;-75
2023/05/29 05:27:50;;;;;;;10.43;5.65;;;;;;;24.55;56.32;94445.19;5130319;27;20561;-75
2023/05/29 05:30:17;;;;;;;10.73;5.57;;;;;;;25.34;53.14;94447.31;5130239;27;20205;-76
2023/05/29 05:32:44;;;;;;;11.30;5.40;;;;;;;23.30;56.54;94450.88;5137710;27;20254;-77
2023/05/29 05:35:11;;;;;;;9.45;5.25;;;;;;;22.70;57.79;94450.28;5150976;27;20290;-76
2023/05/29 05:37:38;;;;;;;6.47;4.97;;;;;;;21.72;61.86;94466.41;5150838;27;20257;-75
2023/05/29 05:40:06;;;;;;;5.18;4.05;;;;;;;20.72;64.61;94460.47;5142016;27;20232;-77
2023/05/29 05:42:33;;;;;;;6.90;4.10;;;;;;;20.52;66.26;94462.84;5130017;27;20543;-76
2023/05/29 05:45:02;;;;;;;4.82;4.00;;;;;;;20.38;66.87;94465.59;5130105;27;20539;-77
2023/05/29 05:47:29;;;;;;;8.40;3.90;;;;;;;20.45;65.44;94462.84;5132886;27;20273;-77
2023/05/29 05:49:56;;;;;;;4.07;3.60;;;;;;;19.23;70.44;94459.47;5151288;27;20204;-77
2023/05/29 05:52:23;;;;;;;6.45;3.70;;;;;;;18.27;73.92;94476.13;5147564;27;20207;-78
2023/05/29 05:54:50;;;;;;;5.60;3.30;;;;;;;18.16;75.76;94480.75;5130511;27;20296;-77
2023/05/29 05:57:16;;;;;;;5.22;3.35;;;;;;;19.36;70.85;94471.69;5130226;27;20249;-76
2023/05/29 05:59:43;;;;;;;6.90;3.53;;;;;;;20.52;67.64;94468.34;5145164;27;20281;-76
2023/05/29 06:02:12;;;;;;;5.88;3.65;;;;;;;22.03;63.23;94463.88;5149845;27;20709;-76
2023/05/29 06:04:38;;;;;;;9.68;3.80;;;;;;;22.52;62.07;94463.50;5150549;27;20663;-75
2023/05/29 06:07:06;;;;;;;5.68;3.17;;;;;;;21.42;62.91;94466.16;5150214;27;20196;-75
2023/05/29 06:09:33;;;;;;;8.70;3.88;;;;;;;20.75;64.87;94464.38;5151238;27;20204;-77
2023/05/29 06:12:00;;;;;;;8.98;3.60;;;;;;;20.35;66.51;94474.63;5150641;27;20232;-77
2023/05/29 06:14:27;;;;;;;4.68;3.08;;;;;;;19.31;69.82;94472.81;5150148;27;20196;-76
2023/05/29 06:16:54;;;;;;;6.38;3.45;;;;;;;19.40;69.55;94469.72;5149924;27;20212;-76
2023/05/29 06:19:22;;;;;;;6.80;3.50;;;;;;;21.07;65.85;94465.06;5149913;27;20232;-75
2023/05/29 06:21:49;;;;;;;8.63;3.78;;;;;;;21.48;63.64;94461.78;5150736;27;20287;-80
2023/05/29 06:24:16;;;;;;;8.27;4.13;;;;;;;20.46;67.50;94475.44;5150195;27;20655;-77
2023/05/29 06:26:43;;;;;;;6.65;3.00;;;;;;;20.69;67.07;94487.97;5130848;27;20839;-76
2023/05/29 06:29:09;;;;;;;5.18;3.80;;;;;;;21.72;62.77;94471.94;5129634;27;20209;-75
2023/05/29 06:31:36;;;;;;;6.22;3.97;;;;;;;21.31;63.55;94484.72;5148819;27;20697;-75
2023/05/29 06:34:03;;;;;;;6.28;3.20;;;;;;;21.99;62.17;94480.47;5150362;27;20204;-75
2023/05/29 06:36:32;;;;;;;4.07;2.70;;;;;;;22.80;58.98;94481.03;5150590;27;20212;-78
2023/05/29 06:38:59;;;;;;;4.82;2.85;;;;;;;23.71;57.46;94470.13;5150352;27;20219;-76
2023/05/29 06:41:26;;;;;;;3.65;2.58;;;;;;;24.27;55.08;94467.78;5135847;27;20636;-75
2023/05/29 06:43:53;;;;;;;6.63;2.90;;;;;;;23.52;56.95;94468.00;5150211;27;20197;-75
2023/05/29 06:46:20;;;;;;;4.18;2.70;;;;;;;22.14;60.01;94476.41;5142099;27;20229;-74
2023/05/29 06:48:46;;;;;;;4.55;2.08;;;;;;;21.38;62.44;94473.66;5129892;27;20348;-76
2023/05/29 06:51:13;;;;;;;4.03;2.55;;;;;;;20.83;64.62;94476.94;5129112;27;20705;-75
2023/05/29 06:53:42;;;;;;;4.65;2.08;;;;;;;22.02;60.96;94476.09;5129734;27;20209;-78
2023/05/29 06:56:08;;;;;;;2.10;1.80;;;;;;;23.16;58.10;94467.63;5139314;27;20197;-76
2023/05/29 06:58:35;;;;;;;2.15;1.80;;;;;;;23.37;57.25;94467.41;5145441;27;20200;-76
2023/05/29 07:01:02;;;;;;;4.18;1.70;;;;;;;23.30;58.34;94465.47;5139348;27;20269;-75
2023/05/29 07:03:29;;;;;;;2.35;1.40;;;;;;;23.03;56.99;94472.91;5147756;27;20245;-75
2023/05/29 07:05:56;;;;;;;1.98;1.50;;;;;;;21.89;60.13;94484.03;5138184;27;20203;-75
2023/05/29 07:08:24;;;;;;;2.22;1.27;;;;;;;21.50;61.31;94476.75;5146519;27;20211;-76
2023/05/29 07:10:52;;;;;;;3.92;1.52;;;;;;;21.72;61.50;94482.97;5134738;27;20200;-75
2023/05/29 07:13:19;;;;;;;2.38;1.80;;;;;;;20.07;65.19;94480.91;5147571;27;20196;-76
2023/05/29 07:15:46;;;;;;;3.13;2.13;;;;;;;20.42;65.55;94485.66;5143988;27;20189;-76
2023/05/29 07:18:13;;;;;;;3.33;2.60;;;;;;;20.77;65.50;94490.34;5148392;27;20724;-75
2023/05/29 07:20:39;;;;;;;5.10;2.63;;;;;;;20.43;65.82;94489.97;5152277;27;20232;-77
2023/05/29 07:23:06;;;;;;;3.22;2.22;;;;;;;21.70;62.23;94485.34;5136682;27;20197;-77
2023/05/29 07:25:33;;;;;;;5.88;2.50;;;;;;;22.94;59.17;94472.59;5153322;27;20247;-76
2023/05/29 07:28:01;;;;;;;4.50;2.00;;;;;;;22.77;57.55;94465.28;5153725;27;20207;-76
2023/05/29 07:30:28;;;;;;;4.05;2.40;;;;;;;22.29;59.44;94477.09;5144355;27;20197;-78
2023/05/29 07:32:55;;;;;;;3.88;2.65;;;;;;;20.55;64.32;94478.56;5149611;27;20209;-76
2023/05/29 07:35:21;;;;;;;5.85;3.03;;;;;;;20.54;65.32;94482.50;5133311;27;20209;-77
2023/05/29 07:37:49;;;;;;;4.57;2.30;;;;;;;21.59;63.78;94479.09;5151730;27;20870;-76
2023/05/29 07:40:16;;;;;;;3.42;2.92;;;;;;;22.52;58.93;94468.25;5147371;27;20232;-76
2023/05/29 07:42:43;;;;;;;5.30;2.35;;;;;;;23.23;57.80;94473.88;5153186;27;20276;-75
2023/05/29 07:45:11;;;;;;;3.75;2.40;;;;;;;22.37;58.94;94484.13;5152801;27;20207;-75
2023/05/29 07:47:38;;;;;;;3.50;2.58;;;;;;;22.61;59.41;94477.63;5149392;27;20228;-75
2023/05/29 07:50:06;;;;;;;4.88;2.40;;;;;;;21.81;60.43;94480.53;5141956;27;20261;-75
2023/05/29 07:52:33;;;;;;;4.07;2.60;;;;;;;20.86;63.44;94481.66;5150571;27;20211;-75
2023/05/29 07:55:01;;;;;;;4.68;2.65;;;;;;;21.20;63.63;94482.78;5153232;27;20204;-74
2023/05/29 07:57:28;;;;;;;3.05;2.55;;;;;;;21.96;60.53;94476.50;5152165;27;20308;-75
2023/05/29 07:59:55;;;;;;;6.10;2.55;;;;;;;22.22;59.93;94466.13;5152828;27;20327;-75
2023/05/29 08:02:23;;;;;;;6.03;2.88;;;;;;;22.14;60.25;94476.41;5152895;27;20231;-78
2023/05/29 08:04:50;;;;;;;3.88;2.85;;;;;;;21.31;61.99;94479.22;5153103;27;20200;-77
2023/05/29 08:07:17;;;;;;;4.15;3.28;;;;;;;20.73;63.63;94472.25;5152882;27;20208;-76
2023/05/29 08:09:44;;;;;;;3.95;3.00;;;;;;;21.17;63.90;94477.25;5153358;27;20211;-76
2023/05/29 08:12:10;;;;;;;8.57;3.45;;;;;;;21.15;64.38;94483.16;5152726;27;20731;-75
2023/05/29 08:14:37;;;;;;;7.00;2.88;;;;;;;20.57;66.53;94486.44;5153575;27;20196;-77
2023/05/29 08:17:04;;;;;;;6.88;3.15;;;;;;;20.03;67.97;94484.81;5152696;27;20210;-76
2023/05/29 08:19:32;;;;;;;3.88;2.80;;;;;;;20.21;66.61;94491.13;5152836;27;20232;-77
2023/05/29 08:21:59;;;;;;;3.90;2.63;;;;;;;19.98;66.67;94485.97;5139246;27;20196;-76
2023/05/29 08:24:27;;;;;;;4.22;2.38;;;;;;;20.93;64.15;94487.94;5151218;27;20204;-77
2023/05/29 08:26:54;;;;;;;2.75;2.38;;;;;;;20.73;64.23;94486.03;5131282;27;20229;-76
2023/05/29 08:29:21;;;;;;;4.10;2.35;;;;;;;21.59;62.59;94490.13;5131320;27;20217;-76
2023/05/29 08:31:48;;;;;;;4.40;2.45;;;;;;;22.52;60.23;94480.06;5131939;27;20201;-76
2023/05/29 08:34:15;;;;;;;2.63;2.25;;;;;;;23.12;58.23;94483.44;5147163;27;20205;-76
2023/05/29 08:36:45;;;;;;;3.65;2.55;;;;;;;23.80;56.91;94478.69;5152752;27;20236;-75
2023/05/29 08:39:11;;;;;;;4.85;2.45;;;;;;;24.04;55.22;94474.81;5152543;27;20224;-74
2023/05/29 08:41:48;;;;;;;4.97;2.60;;;;;;;24.29;54.88;94474.47;5152506;27;20200;-75
2023/05/29 08:44:15;;;;;;;4.90;2.72;;;;;;;24.55;53.92;94478.41;5151216;27;20216;-75
2023/05/29 08:46:44;;;;;;;3.10;2.40;;;;;;;24.18;54.26;94473.06;5151346;27;20327;-77
2023/05/29 08:49:17;;;;;;;3.47;2.50;;;;;;;23.58;55.18;94471.91;5151629;27;20621;-76
2023/05/29 08:51:50;;;;;;;4.22;2.70;;;;;;;23.46;54.83;94464.91;5140927;27;20208;-76
2023/05/29 08:54:17;;;;;;;2.92;2.28;;;;;;;23.90;54.32;94461.19;5131099;27;20197;-78
2023/05/29 08:56:44;;;;;;;3.45;2.30;;;;;;;23.48;53.66;94459.75;5131158;27;20582;-77
2023/05/29 08:59:12;;;;;;;3.78;2.50;;;;;;;23.21;55.37;94462.44;5141133;27;20201;-75
2023/05/29 09:01:40;;;;;;;3.45;2.22;;;;;;;22.74;55.44;94457.78;5151452;27;20277;-75
2023/05/29 09:04:07;;;;;;;3.42;2.50;;;;;;;23.43;54.71;94453.88;5151993;27;20296;-75
2023/05/29 09:06:35;;;;;;;4.47;2.50;;;;;;;23.66;55.02;94451.22;5151840;27;20212;-75
2023/05/29 09:09:04;;;;;;;5.15;2.67;;;;;;;23.97;55.70;94443.69;5151656;27;20272;-76
2023/05/29 09:11:30;;;;;;;4.45;2.83;;;;;;;24.24;53.61;94447.25;5151540;27;20300;-76
2023/05/29 09:13:59;;;;;;;7.45;3.13;;;;;;;24.08;53.20;94453.38;5152013;27;20253;-75
2023/05/29 09:16:26;;;;;;;5.55;2.47;;;;;;;23.54;52.26;94460.88;5136744;27;20655;-76
2023/05/29 09:18:53;;;;;;;3.55;2.67;;;;;;;24.31;49.74;94438.84;5138867;27;20222;-76
2023/05/29 09:21:27;;;;;;;3.17;2.60;;;;;;;24.32;50.85;94439.63;5151510;27;20247;-76
2023/05/29 09:23:55;;;;;;;5.43;2.60;;;;;;;23.80;51.65;94439.97;5151546;27;20199;-76
2023/05/29 09:26:24;;;;;;;3.75;2.40;;;;;;;22.26;53.59;94436.53;5151272;27;20208;-76
2023/05/29 09:28:51;;;;;;;5.18;3.20;;;;;;;22.68;53.83;94433.38;5151356;27;20200;-75
2023/05/29 09:31:19;;;;;;;2.83;2.40;;;;;;;23.50;52.28;94434.44;5151151;27;20606;-75
2023/05/29 09:33:50;;;;;;;4.38;2.67;;;;;;;24.25;50.86;94423.91;5151167;27;20204;-75
2023/05/29 09:36:26;;;;;;;5.97;2.70;;;;;;;24.36;48.03;94423.72;5151304;27;20242;-76
2023/05/29 09:38:52;;;;;;;2.90;2.30;;;;;;;24.98;48.39;94417.50;5138742;27;20663;-75
2023/05/29 09:41:25;;;;;;;4.78;2.70;;;;;;;24.06;49.31;94414.28;5129451;27;20228;-76
2023/05/29 09:43:53;;;;;;;2.85;2.47;;;;;;;23.31;52.06;94422.81;5130155;27;20209;-74
2023/05/29 09:46:20;;;;;;;4.22;2.80;;;;;;;22.48;53.25;94413.03;5130249;27;20236;-75
2023/05/29 09:48:47;;;;;;;3.95;2.60;;;;;;;21.79;55.25;94422.25;5130706;27;20257;-76
2023/05/29 09:51:21;;;;;;;3.90;2.80;;;;;;;21.31;57.30;94419.38;5130726;27;20204;-76
2023/05/29 09:53:50;;;;;;;4.45;2.80;;;;;;;21.51;57.32;94422.41;5130480;27;20216;-77
2023/05/29 09:56:17;;;;;;;3.45;3.00;;;;;;;21.35;57.66;94416.59;5129727;27;20651;-74
2023/05/29 09:58:47;;;;;;;4.53;3.20;;;;;;;20.96;58.45;94414.75;5136476;27;20192;-77
2023/05/29 10:01:15;;;;;;;3.30;2.25;;;;;;;20.91;58.15;94415.16;5150287;27;20280;-76
2023/05/29 10:03:42;;;;;;;3.65;2.80;;;;;;;21.42;56.75;94408.28;5151026;27;20200;-75
2023/05/29 10:06:14;;;;;;;3.45;2.63;;;;;;;22.07;55.25;94403.94;5150975;27;20204;-76
2023/05/29 10:08:47;;;;;;;5.35;2.70;;;;;;;21.85;56.09;94415.13;5147004;27;20208;-76
2023/05/29 10:11:16;;;;;;;5.25;2.55;;;;;;;21.79;55.05;94413.97;5130049;27;20244;-76
2023/05/29 10:13:48;;;;;;;3.80;2.55;;;;;;;22.53;54.04;94404.34;5130090;27;20200;-75
2023/05/29 10:16:15;;;;;;;2.97;2.67;;;;;;;23.32;53.56;94399.50;5130216;27;20259;-75
2023/05/29 10:18:45;;;;;;;4.63;2.70;;;;;;;24.49;51.31;94396.22;5130001;27;20204;-75
2023/05/29 10:21:13;;;;;;;3.53;2.75;;;;;;;23.83;51.15;94400.41;5130235;27;20307;-77
2023/05/29 10:23:43;;;;;;;4.97;2.90;;;;;;;22.60;55.55;94401.47;5137385;27;20212;-74
2023/05/29 10:26:15;;;;;;;4.38;3.17;;;;;;;22.11;55.22;94411.00;5150511;27;20196;-75
2023/05/29 10:28:51;;;;;;;5.35;2.90;;;;;;;22.38;54.79;94397.38;5150990;27;20200;-78
2023/05/29 10:31:22;;;;;;;4.93;2.50;;;;;;;22.90;52.92;94400.03;5150710;27;20654;-78
2023/05/29 10:34:01;;;;;;;4.45;3.00;;;;;;;22.95;51.60;94396.81;5150763;27;20726;-76
2023/05/29 10:36:37;;;;;;;5.35;3.08;;;;;;;23.51;51.48;94395.31;5150653;27;20247;-76
2023/05/29 10:39:04;;;;;;;4.28;2.70;;;;;;;24.06;50.75;94388.59;5150923;27;20263;-75
2023/05/29 10:41:33;;;;;;;4.28;3.10;;;;;;;24.22;48.92;94382.41;5150521;27;20620;-76
2023/05/29 10:44:02;;;;;;;3.15;2.50;;;;;;;24.52;48.95;94385.06;5150386;27;20621;-76
2023/05/29 10:47:05;;;;;;;5.43;2.85;;;;;;;23.53;49.58;94381.88;5149581;27;20348;-75
2023/05/29 10:49:32;;;;;;;4.45;2.67;;;;;;;22.52;52.08;94386.19;5150647;27;20294;-76
2023/05/29 10:52:00;;;;;;;4.25;2.85;;;;;;;22.20;52.62;94382.94;5150706;27;20203;-76
2023/05/29 10:54:28;;;;;;;3.35;2.90;;;;;;;22.30;53.01;94380.06;5154305;27;20603;-76
2023/05/29 10:56:58;;;;;;;3.40;2.70;;;;;;;21.52;53.05;94391.69;5154646;27;20200;-75
2023/05/29 10:59:27;;;;;;;4.10;3.10;;;;;;;21.32;55.35;94381.59;5154675;27;20199;-77
2023/05/29 11:01:54;;;;;;;6.60;3.20;;;;;;;21.60;56.92;94387.69;5154059;27;20239;-77
2023/05/29 11:04:32;;;;;;;5.07;3.28;;;;;;;21.79;59.58;94389.16;5154112;27;20526;-75
2023/05/29 11:06:59;;;;;;;5.22;3.65;;;;;;;21.62;62.25;94376.25;5154459;27;20252;-77
2023/05/29 11:09:32;;;;;;;5.25;3.53;;;;;;;21.45;63.97;94375.22;5154238;27;20208;-77
2023/05/29 11:12:25;;;;;;;9.93;4.07;;;;;;;21.61;65.19;94377.44;5154019;27;20200;-77
2023/05/29 11:14:57;;;;;;;11.07;4.95;;;;;;;22.03;63.93;94372.84;5154614;27;20204;-77
2023/05/29 11:17:45;;;;;;;7.57;4.20;;;;;;;22.87;61.26;94368.47;5154319;27;20215;-77
2023/05/29 11:20:37;;;;;;;4.65;3.30;;;;;;;24.03;57.18;94354.25;5148635;27;20221;-77
2023/05/29 11:23:07;;;;;;;4.57;3.10;;;;;;;24.66;54.12;94345.25;5143452;27;20245;-77
2023/05/29 11:25:36;;;;;;;4.85;3.40;;;;;;;24.96;54.14;94347.06;5153698;27;20249;-76
2023/05/29 11:28:08;;;;;;;5.07;3.03;;;;;;;25.29;52.97;94342.41;5153588;27;20241;-76
2023/05/29 11:30:43;;;;;;;3.90;3.00;;;;;;;25.65;54.80;94348.00;5153820;27;20228;-76
2023/05/29 11:33:21;;;;;;;4.28;3.42;;;;;;;25.55;52.60;94351.78;5153914;27;20212;-76